Time;durP1;ratioP1;P1;durP2;ratioP2;P2;SDS_P1;SDS_P2;PMS_P1;PMS_P2;Temp;Humidity;BMP_temperature;BMP_pressure;BME280_temperature;BME280_humidity;BME280_pressure;Samples;Min_cycle;Max_cycle;Signal;HPM_P1;HPM_P2
2021/06/17 00:01:40;;;;;;;;;;;;;;;25.33;52.80;100519.11;1759403;81;20146;-77
2021/06/17 00:04:07;;;;;;;;;;;;;;;25.33;52.56;100533.36;1759377;81;20163;-77
2021/06/17 00:06:33;;;;;;;;;;;;;;;25.29;52.49;100542.09;1759186;81;20155;-77
2021/06/17 00:08:59;;;;;;;;;;;;;;;25.29;52.41;100548.11;1759049;81;20766;-77
2021/06/17 00:11:25;;;;;;;;;;;;;;;25.26;52.37;100543.98;1759157;81;20247;-77
2021/06/17 00:13:51;;;;;;;;;;;;;;;25.24;52.39;100546.13;1759109;81;20210;-77
2021/06/17 00:16:17;;;;;;;;;;;;;;;25.23;52.38;100560.93;1759130;81;20134;-77
2021/06/17 00:18:44;;;;;;;;;;;;;;;25.19;52.41;100559.77;1759167;81;20190;-77
2021/06/17 00:21:10;;;;;;;;;;;;;;;25.16;52.53;100560.27;1759117;81;20459;-77
2021/06/17 00:23:36;;;;;;;;;;;;;;;25.16;52.57;100571.23;1759132;81;20180;-78
2021/06/17 00:26:02;;;;;;;;;;;;;;;25.19;52.59;100574.84;1759352;81;20659;-78
2021/06/17 00:28:28;;;;;;;;;;;;;;;25.18;52.59;100570.45;1759267;81;20142;-78
2021/06/17 00:30:55;;;;;;;;;;;;;;;25.17;52.61;100563.32;1759346;81;20151;-77
2021/06/17 00:33:20;;;;;;;;;;;;;;;25.17;52.62;100541.39;1759298;81;20205;-78
2021/06/17 00:35:47;;;;;;;;;;;;;;;25.19;52.66;100523.30;1759372;81;20216;-78
2021/06/17 00:38:13;;;;;;;;;;;;;;;25.20;52.66;100516.19;1759394;81;20172;-77
2021/06/17 00:40:39;;;;;;;;;;;;;;;25.61;51.61;100511.22;1759600;81;20423;-77
2021/06/17 00:43:05;;;;;;;;;;;;;;;25.37;52.00;100508.47;1759478;81;20159;-78
2021/06/17 00:45:38;;;;;;;;;;;;;;;25.24;52.25;100505.55;1759288;81;20159;-77
2021/06/17 00:48:06;;;;;;;;;;;;;;;25.19;52.37;100507.69;1759496;81;20138;-77
2021/06/17 00:50:41;;;;;;;;;;;;;;;25.19;52.39;100510.42;1759692;81;20432;-77
2021/06/17 00:53:11;;;;;;;;;;;;;;;25.18;52.40;100512.89;1759336;81;20464;-77
2021/06/17 00:55:43;;;;;;;;;;;;;;;25.14;52.49;100506.25;1759385;81;20412;-76
2021/06/17 00:58:10;;;;;;;;;;;;;;;25.12;52.57;100504.31;1759293;81;20135;-77
2021/06/17 01:00:36;;;;;;;;;;;;;;;25.13;52.53;100508.70;1759823;81;20423;-76
2021/06/17 01:03:02;;;;;;;;;;;;;;;25.10;52.46;100500.98;1759440;81;20221;-76
2021/06/17 01:05:28;;;;;;;;;;;;;;;25.08;52.47;100497.68;1759178;81;20142;-77
2021/06/17 01:08:25;;;;;;;;;;;;;;;25.07;52.46;100495.97;1759848;81;20147;-78
2021/06/17 01:11:07;;;;;;;;;;;;;;;25.08;52.41;100496.31;1759565;81;20142;-78
2021/06/17 01:13:54;;;;;;;;;;;;;;;25.05;52.33;100500.88;1759506;81;20122;-77
2021/06/17 01:16:42;;;;;;;;;;;;;;;25.01;52.32;100507.95;1759676;81;20206;-78
2021/06/17 01:19:32;;;;;;;;;;;;;;;25.01;52.29;100511.52;1759416;81;20135;-77
2021/06/17 01:22:17;;;;;;;;;;;;;;;25.03;52.27;100513.48;1759914;81;20139;-76
2021/06/17 01:24:58;;;;;;;;;;;;;;;25.03;52.25;100523.07;1759237;81;20138;-77
2021/06/17 01:27:40;;;;;;;;;;;;;;;25.01;52.31;100518.91;1733349;81;20177;-76
2021/06/17 01:30:09;;;;;;;;;;;;;;;25.02;52.36;100519.20;1732881;81;20143;-76
2021/06/17 01:32:36;;;;;;;;;;;;;;;25.03;52.42;100515.39;1759584;81;20198;-76
2021/06/17 01:35:02;;;;;;;;;;;;;;;25.03;52.42;100514.85;1759150;81;20194;-76
2021/06/17 01:37:28;;;;;;;;;;;;;;;25.03;52.42;100508.00;1759598;81;20131;-76
2021/06/17 01:39:54;;;;;;;;;;;;;;;25.04;52.39;100504.71;1759198;81;20135;-76
2021/06/17 01:42:24;;;;;;;;;;;;;;;25.04;52.40;100511.02;1736260;81;20161;-76
2021/06/17 01:44:56;;;;;;;;;;;;;;;25.03;52.39;100506.62;1758893;81;20179;-77
2021/06/17 01:47:23;;;;;;;;;;;;;;;25.04;52.44;100521.16;1760588;81;20138;-78
2021/06/17 01:49:49;;;;;;;;;;;;;;;25.04;52.41;100523.90;1759732;81;20178;-77
2021/06/17 01:52:15;;;;;;;;;;;;;;;25.05;52.41;100522.81;1760060;81;20138;-76
2021/06/17 01:54:41;;;;;;;;;;;;;;;25.03;52.41;100529.09;1759249;81;20149;-77
2021/06/17 01:57:08;;;;;;;;;;;;;;;25.01;52.39;100533.98;1759913;81;20127;-78
2021/06/17 01:59:34;;;;;;;;;;;;;;;25.03;52.33;100545.54;1759338;81;20135;-78
2021/06/17 02:02:00;;;;;;;;;;;;;;;25.01;52.31;100546.31;1759068;81;20127;-78
2021/06/17 02:04:28;;;;;;;;;;;;;;;25.01;52.34;100535.35;1759225;81;20435;-78
2021/06/17 02:06:55;;;;;;;;;;;;;;;25.01;52.36;100529.33;1758672;81;20451;-78
2021/06/17 02:09:23;;;;;;;;;;;;;;;25.01;52.31;100527.13;1758200;81;20185;-76
2021/06/17 02:11:49;;;;;;;;;;;;;;;24.99;52.33;100518.34;1758338;81;20412;-76
2021/06/17 02:14:15;;;;;;;;;;;;;;;24.99;52.37;100529.31;1759137;81;20142;-77
2021/06/17 02:16:42;;;;;;;;;;;;;;;24.98;52.35;100531.73;1759433;81;20194;-77
2021/06/17 02:19:08;;;;;;;;;;;;;;;24.96;52.37;100532.55;1759610;81;20425;-77
2021/06/17 02:21:34;;;;;;;;;;;;;;;24.96;52.46;100541.59;1759659;81;20177;-76
2021/06/17 02:24:01;;;;;;;;;;;;;;;24.96;52.56;100551.72;1759015;81;20147;-76
2021/06/17 02:26:27;;;;;;;;;;;;;;;24.97;52.75;100560.23;1759208;81;20138;-76
2021/06/17 02:28:54;;;;;;;;;;;;;;;24.97;52.84;100556.12;1758571;81;20198;-76
2021/06/17 02:31:24;;;;;;;;;;;;;;;24.96;52.85;100556.66;1758047;81;20320;-77
2021/06/17 02:33:50;;;;;;;;;;;;;;;24.97;52.81;100550.64;1759115;81;20174;-77
2021/06/17 02:36:22;;;;;;;;;;;;;;;24.99;52.82;100558.08;1759438;81;20130;-77
2021/06/17 02:38:44;;;;;;;;;;;;;;;25.00;52.97;100557.00;1758310;80;20174;-77
2021/06/17 02:41:12;;;;;;;;;;;;;;;25.04;52.90;100563.64;1710223;81;20201;-76
2021/06/17 02:43:42;;;;;;;;;;;;;;;25.07;52.75;100552.16;1757615;81;20166;-76
2021/06/17 02:46:09;;;;;;;;;;;;;;;25.13;52.68;100551.20;1735448;81;20178;-76
2021/06/17 02:48:35;;;;;;;;;;;;;;;25.16;52.61;100554.78;1757707;81;20170;-77
2021/06/17 02:51:01;;;;;;;;;;;;;;;25.23;52.56;100555.98;1759594;81;20845;-77
2021/06/17 02:53:27;;;;;;;;;;;;;;;25.27;52.50;100557.97;1759214;81;20138;-76
2021/06/17 02:55:53;;;;;;;;;;;;;;;25.33;52.44;100560.23;1759421;81;20699;-76
2021/06/17 02:58:35;;;;;;;;;;;;;;;25.38;52.24;100563.59;1759164;81;20190;-77
2021/06/17 03:01:20;;;;;;;;;;;;;;;25.42;52.02;100560.62;1759580;81;20451;-76
2021/06/17 03:03:59;;;;;;;;;;;;;;;25.39;52.05;100555.64;1750049;81;20191;-76
2021/06/17 03:06:32;;;;;;;;;;;;;;;25.44;51.94;100552.45;1741402;81;20223;-77
2021/06/17 03:09:01;;;;;;;;;;;;;;;25.44;52.03;100548.88;1743735;82;20118;-76
2021/06/17 03:11:32;;;;;;;;;;;;;;;25.55;51.82;100554.77;1744036;82;20122;-77
2021/06/17 03:14:01;;;;;;;;;;;;;;;25.52;51.77;100553.90;1736099;82;20176;-77
2021/06/17 03:16:31;;;;;;;;;;;;;;;25.51;51.88;100553.62;1744276;82;20173;-77
2021/06/17 03:18:59;;;;;;;;;;;;;;;25.51;51.85;100554.98;1744702;82;20169;-77
2021/06/17 03:21:29;;;;;;;;;;;;;;;25.49;51.71;100553.88;1735742;82;20153;-77
2021/06/17 03:23:56;;;;;;;;;;;;;;;25.43;51.66;100555.42;1742533;82;20154;-77
2021/06/17 03:26:23;;;;;;;;;;;;;;;25.39;51.84;100561.12;1743528;82;20909;-76
2021/06/17 03:28:50;;;;;;;;;;;;;;;25.39;52.02;100562.50;1743784;82;20190;-76
2021/06/17 03:31:16;;;;;;;;;;;;;;;25.40;52.03;100563.64;1737696;82;20168;-77
2021/06/17 03:33:42;;;;;;;;;;;;;;;25.43;51.94;100563.11;1744114;82;20193;-76
2021/06/17 03:36:09;;;;;;;;;;;;;;;25.45;51.87;100564.25;1744684;82;20145;-77
2021/06/17 03:38:38;;;;;;;;;;;;;;;25.44;51.90;100565.34;1744181;82;20292;-77
2021/06/17 03:41:05;;;;;;;;;;;;;;;25.44;51.88;100565.34;1743907;82;20158;-77
2021/06/17 03:43:32;;;;;;;;;;;;;;;25.40;51.98;100569.13;1744413;82;20131;-77
2021/06/17 03:45:59;;;;;;;;;;;;;;;25.38;51.89;100571.81;1744796;82;20408;-77
2021/06/17 03:48:25;;;;;;;;;;;;;;;25.34;51.82;100569.28;1744802;82;20141;-77
2021/06/17 03:50:51;;;;;;;;;;;;;;;25.32;51.89;100569.55;1747150;80;20143;-77
2021/06/17 03:53:18;;;;;;;;;;;;;;;25.34;51.88;100569.28;1773927;80;20124;-76
2021/06/17 03:55:45;;;;;;;;;;;;;;;25.33;51.90;100574.48;1769218;80;20173;-76
2021/06/17 03:58:11;;;;;;;;;;;;;;;25.29;51.93;100577.73;1765916;81;20165;-77
2021/06/17 04:00:37;;;;;;;;;;;;;;;25.27;51.92;100570.31;1761736;81;20300;-76
2021/06/17 04:03:07;;;;;;;;;;;;;;;25.28;52.07;100576.62;1767943;80;20181;-76
2021/06/17 04:05:37;;;;;;;;;;;;;;;25.29;52.06;100579.09;1761317;81;20133;-77
2021/06/17 04:08:08;;;;;;;;;;;;;;;25.30;51.92;100589.01;1767328;80;20142;-76
2021/06/17 04:10:35;;;;;;;;;;;;;;;25.35;52.00;100590.16;1765992;81;20177;-76
2021/06/17 04:13:01;;;;;;;;;;;;;;;25.40;51.97;100586.12;1765586;81;20181;-76
2021/06/17 04:15:27;;;;;;;;;;;;;;;25.48;51.93;100582.91;1769008;80;20259;-77
2021/06/17 04:17:56;;;;;;;;;;;;;;;25.50;51.88;100581.59;1782933;80;20285;-77
2021/06/17 04:20:29;;;;;;;;;;;;;;;25.55;51.85;100573.97;1776132;80;20731;-77
2021/06/17 04:22:56;;;;;;;;;;;;;;;25.97;51.08;100571.48;1772855;80;20495;-76
2021/06/17 04:25:22;;;;;;;;;;;;;;;25.71;51.69;100574.47;1769334;80;20158;-77
2021/06/17 04:27:50;;;;;;;;;;;;;;;25.79;51.40;100572.65;1768704;80;20149;-76
2021/06/17 04:30:17;;;;;;;;;;;;;;;26.21;50.58;100577.53;1765203;80;20213;-77
2021/06/17 04:32:44;;;;;;;;;;;;;;;26.37;50.09;100576.30;1764197;80;20761;-77
2021/06/17 04:35:11;;;;;;;;;;;;;;;26.45;49.75;100579.98;1744606;80;20157;-77
2021/06/17 04:37:36;;;;;;;;;;;;;;;26.50;49.71;100580.85;1763788;80;20452;-76
2021/06/17 04:40:05;;;;;;;;;;;;;;;26.59;49.56;100580.38;1768566;80;20625;-78
2021/06/17 04:42:31;;;;;;;;;;;;;;;26.62;49.44;100577.95;1755056;81;20460;-78
2021/06/17 04:44:58;;;;;;;;;;;;;;;26.67;49.28;100586.23;1755780;81;20149;-75
2021/06/17 04:47:25;;;;;;;;;;;;;;;26.73;49.19;100583.80;1775560;79;20217;-76
2021/06/17 04:49:51;;;;;;;;;;;;;;;26.79;49.15;100579.98;1772277;79;20204;-78
2021/06/17 04:52:30;;;;;;;;;;;;;;;26.88;48.92;100574.84;1767227;80;20265;-76
2021/06/17 04:54:56;;;;;;;;;;;;;;;26.96;48.68;100580.40;1767058;81;20575;-77
2021/06/17 04:57:22;;;;;;;;;;;;;;;27.06;48.63;100574.97;1773500;80;20205;-77
2021/06/17 04:59:48;;;;;;;;;;;;;;;27.10;48.36;100580.25;1743721;81;20169;-77
2021/06/17 05:02:14;;;;;;;;;;;;;;;27.14;48.18;100577.26;1758814;80;20201;-77
2021/06/17 05:04:40;;;;;;;;;;;;;;;27.19;48.15;100584.71;1761329;80;20451;-77
2021/06/17 05:12:21;;;;;;;;;;;;;;;27.35;48.23;100578.77;1767136;79;20200;-77
2021/06/17 05:14:47;;;;;;;;;;;;;;;27.42;48.02;100580.17;1762492;80;20496;-77
2021/06/17 05:17:13;;;;;;;;;;;;;;;27.48;47.99;100581.02;1766274;80;21173;-77
2021/06/17 05:19:39;;;;;;;;;;;;;;;27.53;47.87;100577.77;1767106;79;20588;-77
2021/06/17 05:22:06;;;;;;;;;;;;;;;27.56;47.69;100580.51;1764806;80;20158;-77
2021/06/17 05:24:32;;;;;;;;;;;;;;;27.61;47.58;100584.66;1738845;81;20198;-76
2021/06/17 05:26:58;;;;;;;;;;;;;;;27.68;47.45;100589.94;1765623;79;20232;-77
2021/06/17 05:29:23;;;;;;;;;;;;;;;27.73;47.39;100590.80;1763986;79;20152;-76
2021/06/17 05:31:50;;;;;;;;;;;;;;;27.77;47.28;100595.23;1764603;79;20166;-78
2021/06/17 05:34:16;;;;;;;;;;;;;;;27.81;47.07;100591.67;1765680;80;20163;-77
2021/06/17 05:36:42;;;;;;;;;;;;;;;27.86;47.04;100599.67;1764821;80;20143;-78
2021/06/17 05:39:08;;;;;;;;;;;;;;;27.91;46.99;100599.69;1772284;79;20615;-76
2021/06/17 05:41:34;;;;;;;;;;;;;;;27.94;46.79;100590.90;1762328;80;20393;-78
2021/06/17 05:44:00;;;;;;;;;;;;;;;27.98;46.82;100590.09;1765678;80;20193;-78
2021/06/17 05:46:26;;;;;;;;;;;;;;;28.03;46.85;100583.22;1768314;79;20138;-78
2021/06/17 05:48:52;;;;;;;;;;;;;;;28.09;46.57;100586.80;1768644;79;20161;-78
2021/06/17 05:51:18;;;;;;;;;;;;;;;28.12;46.54;100594.53;1767841;79;20794;-78
2021/06/17 05:53:45;;;;;;;;;;;;;;;28.16;46.31;100595.65;1772966;79;20161;-77
2021/06/17 05:56:11;;;;;;;;;;;;;;;28.20;46.11;100598.11;1764089;80;20191;-77
2021/06/17 05:58:37;;;;;;;;;;;;;;;28.23;45.92;100594.82;1765508;80;20570;-77
2021/06/17 06:01:03;;;;;;;;;;;;;;;28.28;46.16;100594.83;1765358;80;20160;-77
2021/06/17 06:03:33;;;;;;;;;;;;;;;28.37;46.17;100588.81;1759145;80;20213;-77
2021/06/17 06:05:58;;;;;;;;;;;;;;;28.45;46.15;100596.55;1772523;79;20145;-77
2021/06/17 06:08:26;;;;;;;;;;;;;;;28.52;45.72;100601.22;1763420;79;20198;-76
2021/06/17 06:10:52;;;;;;;;;;;;;;;28.59;45.67;100597.66;1770952;79;20603;-78
2021/06/17 06:13:20;;;;;;;;;;;;;;;28.68;45.21;100607.03;1769822;79;20135;-77
2021/06/17 06:15:46;;;;;;;;;;;;;;;28.75;45.05;100615.88;1766904;79;20140;-77
2021/06/17 06:18:13;;;;;;;;;;;;;;;28.87;44.73;100625.79;1775211;79;20159;-77
2021/06/17 06:20:42;;;;;;;;;;;;;;;28.97;44.59;100626.63;1748341;80;20199;-77
2021/06/17 06:23:08;;;;;;;;;;;;;;;29.09;44.47;100629.12;1771853;79;20150;-77
2021/06/17 06:25:34;;;;;;;;;;;;;;;29.24;44.23;100631.84;1774076;79;20139;-77
2021/06/17 06:28:05;;;;;;;;;;;;;;;29.40;43.90;100630.46;1772244;79;20161;-77
2021/06/17 06:30:31;;;;;;;;;;;;;;;29.54;43.67;100641.19;1770219;79;20469;-77
2021/06/17 06:32:57;;;;;;;;;;;;;;;29.72;43.45;100639.23;1775421;79;20617;-77
2021/06/17 06:35:24;;;;;;;;;;;;;;;29.88;43.57;100635.02;1739249;81;20302;-77
2021/06/17 06:37:51;;;;;;;;;;;;;;;29.78;43.72;100644.17;1740800;81;20196;-77
2021/06/17 06:40:17;;;;;;;;;;;;;;;29.74;43.82;100648.05;1759309;80;20197;-77
2021/06/17 06:42:44;;;;;;;;;;;;;;;29.83;43.86;100655.19;1747147;81;20169;-76
2021/06/17 06:45:11;;;;;;;;;;;;;;;29.96;43.28;100652.39;1748673;80;20109;-76
2021/06/17 06:47:37;;;;;;;;;;;;;;;30.06;42.90;100656.48;1747990;80;20580;-77
2021/06/17 06:50:05;;;;;;;;;;;;;;;30.18;42.87;100654.25;1737544;81;20186;-78
2021/06/17 06:52:32;;;;;;;;;;;;;;;30.28;42.79;100656.95;1736626;81;20170;-76
2021/06/17 06:55:03;;;;;;;;;;;;;;;30.39;42.70;100657.74;1761123;79;20142;-77
2021/06/17 06:57:29;;;;;;;;;;;;;;;30.51;42.46;100662.91;1735577;81;20144;-77
2021/06/17 06:59:55;;;;;;;;;;;;;;;30.62;42.49;100658.98;1765498;79;20227;-77
2021/06/17 07:02:21;;;;;;;;;;;;;;;30.72;42.42;100645.09;1757525;80;20156;-76
2021/06/17 07:04:47;;;;;;;;;;;;;;;30.82;42.00;100646.40;1733065;81;20188;-76
2021/06/17 07:07:13;;;;;;;;;;;;;;;30.94;42.01;100641.06;1773261;79;20177;-77
2021/06/17 07:09:46;;;;;;;;;;;;;;;31.02;41.77;100638.50;1757967;80;20450;-77
2021/06/17 07:12:18;;;;;;;;;;;;;;;31.11;41.77;100637.29;1758028;80;20156;-76
2021/06/17 07:14:44;;;;;;;;;;;;;;;31.21;41.74;100639.16;1760425;80;20183;-77
2021/06/17 07:17:12;;;;;;;;;;;;;;;31.31;41.50;100632.98;1758618;80;20451;-77
2021/06/17 07:19:41;;;;;;;;;;;;;;;31.40;41.44;100637.89;1774326;79;20177;-76
2021/06/17 07:22:24;;;;;;;;;;;;;;;31.46;41.01;100636.70;1773454;79;20192;-77
2021/06/17 07:25:05;;;;;;;;;;;;;;;31.51;40.94;100635.27;1767967;79;20164;-76
2021/06/17 07:27:34;;;;;;;;;;;;;;;31.56;40.75;100638.80;1753521;80;20150;-78
2021/06/17 07:30:13;;;;;;;;;;;;;;;;;;;;;
2021/06/17 07:32:45;;;;;;;;;;;;;;;31.68;40.69;100636.19;1764834;79;20193;-76
2021/06/17 07:35:14;;;;;;;;;;;;;;;31.70;40.46;100629.22;1767878;79;20497;-77
2021/06/17 07:40:17;;;;;;;;;;;;;;;31.76;40.14;100636.93;1728973;80;20615;-77
2021/06/17 07:42:43;;;;;;;;;;;;;;;31.81;40.23;100642.41;1741351;81;20171;-77
2021/06/17 07:45:11;;;;;;;;;;;;;;;31.85;40.19;100649.04;1713424;81;20733;-77
2021/06/17 07:47:38;;;;;;;;;;;;;;;31.88;39.63;100645.66;1757497;80;20147;-77
2021/06/17 07:50:05;;;;;;;;;;;;;;;31.90;39.31;100642.61;1764681;80;20173;-78
2021/06/17 07:52:31;;;;;;;;;;;;;;;31.93;39.23;100650.31;1763190;79;20594;-76
2021/06/17 07:54:57;;;;;;;;;;;;;;;31.96;39.27;100645.00;1739588;80;20216;-77
2021/06/17 07:57:23;;;;;;;;;;;;;;;31.96;39.14;100652.50;1766776;79;20617;-77
2021/06/17 07:59:49;;;;;;;;;;;;;;;31.94;39.15;100645.05;1766756;79;20194;-77
2021/06/17 08:02:15;;;;;;;;;;;;;;;31.98;39.06;100646.11;1766483;79;20189;-78
2021/06/17 08:04:41;;;;;;;;;;;;;;;31.98;38.81;100650.27;1767280;79;20143;-77
2021/06/17 08:07:08;;;;;;;;;;;;;;;31.97;38.87;100652.19;1756535;80;20167;-78
2021/06/17 08:09:37;;;;;;;;;;;;;;;31.99;39.07;100654.69;1755522;80;20192;-77
2021/06/17 08:12:04;;;;;;;;;;;;;;;32.01;39.04;100664.90;1760289;80;20193;-77
2021/06/17 08:14:30;;;;;;;;;;;;;;;31.98;38.73;100658.58;1741858;80;20167;-77
2021/06/17 08:16:57;;;;;;;;;;;;;;;31.96;39.00;100667.73;1731984;81;20592;-78
2021/06/17 08:19:28;;;;;;;;;;;;;;;31.95;39.12;100668.30;1765032;79;20214;-77
2021/06/17 08:22:05;;;;;;;;;;;;;;;31.96;39.22;100664.97;1770100;79;20232;-78
2021/06/17 08:24:33;;;;;;;;;;;;;;;31.94;39.28;100666.66;1769736;79;20175;-76
2021/06/17 08:26:59;;;;;;;;;;;;;;;31.93;39.18;100680.25;1769856;79;20234;-76
2021/06/17 08:29:26;;;;;;;;;;;;;;;31.92;39.27;100684.12;1769912;79;20605;-77
2021/06/17 08:31:52;;;;;;;;;;;;;;;31.87;39.50;100678.64;1738675;81;20157;-77
2021/06/17 08:34:24;;;;;;;;;;;;;;;31.85;39.65;100677.30;1752035;80;20170;-78
2021/06/17 08:36:56;;;;;;;;;;;;;;;31.81;39.85;100680.63;1718485;80;20139;-77
2021/06/17 08:39:22;;;;;;;;;;;;;;;31.80;40.02;100687.85;1761326;79;20151;-77
2021/06/17 08:42:08;;;;;;;;;;;;;;;;;;;;;
2021/06/17 08:44:32;;;;;;;;;;;;;;;31.72;40.40;100676.85;1728851;80;20215;-76
2021/06/17 08:47:26;;;;;;;;;;;;;;;31.69;40.49;100667.73;1714356;80;20200;-77
2021/06/17 08:49:54;;;;;;;;;;;;;;;31.65;40.44;100676.36;1760860;79;20150;-75
2021/06/17 08:52:29;;;;;;;;;;;;;;;31.60;40.60;100661.19;1760840;79;20181;-76
2021/06/17 08:54:55;;;;;;;;;;;;;;;31.60;40.98;100657.03;1763778;80;20179;-77
2021/06/17 08:57:22;;;;;;;;;;;;;;;31.60;41.05;100654.27;1737465;80;20583;-77
2021/06/17 08:59:50;;;;;;;;;;;;;;;31.62;41.01;100654.81;1763721;79;20152;-77
2021/06/17 09:02:17;;;;;;;;;;;;;;;31.59;40.98;100649.86;1739018;80;20141;-77
2021/06/17 09:04:45;;;;;;;;;;;;;;;31.55;40.97;100648.80;1761954;79;20172;-77
2021/06/17 09:07:14;;;;;;;;;;;;;;;31.53;41.03;100647.71;1763531;79;20161;-77
2021/06/17 09:09:43;;;;;;;;;;;;;;;31.53;41.02;100642.73;1769499;79;20260;-76
2021/06/17 09:12:15;;;;;;;;;;;;;;;31.51;40.70;100638.86;1721649;80;20809;-76
2021/06/17 09:14:51;;;;;;;;;;;;;;;31.48;40.63;100635.88;1747565;80;20202;-75
2021/06/17 09:17:18;;;;;;;;;;;;;;;31.47;41.01;100636.41;1752030;80;20128;-75
2021/06/17 09:19:49;;;;;;;;;;;;;;;31.45;41.43;100643.38;1758316;80;20174;-76
2021/06/17 09:22:18;;;;;;;;;;;;;;;31.44;41.48;100634.80;1764433;79;20646;-76
2021/06/17 09:24:48;;;;;;;;;;;;;;;31.40;41.37;100626.26;1743912;80;20210;-75
2021/06/17 09:27:30;;;;;;;;;;;;;;;31.39;41.53;100627.95;1767140;79;20179;-77
2021/06/17 09:30:14;;;;;;;;;;;;;;;31.37;41.26;100638.47;1745525;80;20186;-76
2021/06/17 09:32:53;;;;;;;;;;;;;;;31.29;40.74;100637.16;1771068;79;20167;-77
2021/06/17 09:35:24;;;;;;;;;;;;;;;31.24;41.29;100628.31;1764944;79;20154;-77
2021/06/17 09:38:01;;;;;;;;;;;;;;;31.18;41.52;100622.57;1740787;80;20193;-77
2021/06/17 09:40:35;;;;;;;;;;;;;;;31.20;41.48;100633.34;1747261;80;20626;-77
2021/06/17 09:43:14;;;;;;;;;;;;;;;31.20;41.92;100631.95;1738757;81;20152;-77
2021/06/17 09:46:00;;;;;;;;;;;;;;;31.16;41.93;100630.88;1708719;81;20268;-77
2021/06/17 09:48:45;;;;;;;;;;;;;;;31.12;41.75;100638.97;1769754;79;20138;-77
2021/06/17 09:51:27;;;;;;;;;;;;;;;31.08;41.68;100636.51;1769784;79;20205;-76
2021/06/17 09:53:56;;;;;;;;;;;;;;;31.01;41.86;100628.53;1767568;79;20420;-76
2021/06/17 09:56:31;;;;;;;;;;;;;;;30.97;41.84;100630.78;1754247;79;20213;-78
2021/06/17 09:59:00;;;;;;;;;;;;;;;30.93;41.88;100621.41;1758598;80;20471;-76
2021/06/17 10:01:35;;;;;;;;;;;;;;;30.89;41.36;100634.20;1735086;81;20226;-77
2021/06/17 10:04:24;;;;;;;;;;;;;;;30.88;41.30;100628.38;1758236;80;20194;-76
2021/06/17 10:06:43;;;;;;;;;;;;;;;30.87;41.98;100623.97;1741934;80;20158;-77
2021/06/17 10:09:14;;;;;;;;;;;;;;;30.86;42.25;100630.62;1745193;80;20551;-78
2021/06/17 10:11:41;;;;;;;;;;;;;;;30.82;41.78;100634.52;1767032;79;20492;-76
2021/06/17 10:14:11;;;;;;;;;;;;;;;30.78;41.38;100628.73;1747939;81;20496;-78
2021/06/17 10:16:39;;;;;;;;;;;;;;;30.77;41.55;100632.61;1763202;79;20422;-78
2021/06/17 10:19:08;;;;;;;;;;;;;;;30.74;41.89;100627.65;1769126;79;20098;-78
2021/06/17 10:21:34;;;;;;;;;;;;;;;30.73;42.03;100643.16;1763441;79;20172;-78
2021/06/17 10:24:02;;;;;;;;;;;;;;;30.67;42.13;100628.52;1764301;79;20187;-78
2021/06/17 10:26:31;;;;;;;;;;;;;;;30.66;41.98;100632.94;1741915;80;20202;-78
2021/06/17 10:29:06;;;;;;;;;;;;;;;30.66;41.78;100631.02;1762136;79;20153;-77
2021/06/17 10:31:40;;;;;;;;;;;;;;;30.63;41.48;100634.36;1745659;80;20160;-77
2021/06/17 10:34:29;;;;;;;;;;;;;;;30.65;41.89;100620.23;1747508;80;20115;-77
2021/06/17 10:37:12;;;;;;;;;;;;;;;30.66;42.05;100615.81;1764978;81;20536;-77
2021/06/17 10:39:52;;;;;;;;;;;;;;;30.66;42.15;100619.11;1763532;79;20136;-76
2021/06/17 10:42:30;;;;;;;;;;;;;;;30.68;42.49;100609.98;1760867;79;20154;-77
2021/06/17 10:44:59;;;;;;;;;;;;;;;30.70;42.39;100616.04;1765517;79;20180;-77
2021/06/17 10:47:47;;;;;;;;;;;;;;;30.70;42.19;100607.19;1763763;79;20183;-77
2021/06/17 10:50:28;;;;;;;;;;;;;;;30.71;42.29;100608.89;1740861;81;20188;-77
2021/06/17 10:53:20;;;;;;;;;;;;;;;30.74;42.45;100617.97;1760752;79;20576;-77
2021/06/17 10:55:54;;;;;;;;;;;;;;;30.74;42.46;100618.53;1762460;79;20101;-77
2021/06/17 10:58:44;;;;;;;;;;;;;;;30.75;42.67;100629.33;1756086;80;20592;-77
2021/06/17 11:01:38;;;;;;;;;;;;;;;30.76;42.59;100614.94;1756688;80;20207;-76
2021/06/17 11:04:21;;;;;;;;;;;;;;;30.76;42.22;100624.05;1768487;79;20841;-77
2021/06/17 11:06:56;;;;;;;;;;;;;;;30.74;41.79;100623.50;1770663;79;20173;-77
2021/06/17 11:09:47;;;;;;;;;;;;;;;30.72;41.78;100616.63;1761848;80;20152;-77
2021/06/17 11:12:19;;;;;;;;;;;;;;;30.70;42.32;100621.02;1764642;79;20147;-76
2021/06/17 11:14:48;;;;;;;;;;;;;;;30.71;42.74;100621.86;1768230;79;20497;-76
2021/06/17 11:17:33;;;;;;;;;;;;;;;30.70;42.73;100620.19;1763475;79;20387;-76
2021/06/17 11:20:08;;;;;;;;;;;;;;;30.68;42.24;100616.34;1767554;79;20184;-76
2021/06/17 11:22:40;;;;;;;;;;;;;;;30.66;42.04;100617.73;1764290;79;20134;-77
2021/06/17 11:25:12;;;;;;;;;;;;;;;30.67;41.68;100621.61;1762476;79;20122;-77
2021/06/17 11:27:57;;;;;;;;;;;;;;;30.64;41.35;100621.35;1767066;79;20431;-77
2021/06/17 11:30:42;;;;;;;;;;;;;;;30.66;41.04;100623.25;1764365;79;20159;-77
2021/06/17 11:33:18;;;;;;;;;;;;;;;30.68;40.95;100616.90;1767839;79;20140;-76
2021/06/17 11:35:58;;;;;;;;;;;;;;;30.71;41.26;100615.80;1770968;79;20151;-79
2021/06/17 11:38:26;;;;;;;;;;;;;;;30.71;41.74;100633.78;1760782;79;20140;-76
2021/06/17 11:40:52;;;;;;;;;;;;;;;30.70;41.49;100633.45;1767313;79;20178;-76
2021/06/17 11:43:22;;;;;;;;;;;;;;;30.69;41.27;100633.19;1749350;79;20510;-76
2021/06/17 11:45:51;;;;;;;;;;;;;;;30.67;41.40;100624.38;1766470;79;20091;-76
2021/06/17 11:48:17;;;;;;;;;;;;;;;30.66;41.70;100624.11;1746940;79;20551;-76
2021/06/17 11:50:44;;;;;;;;;;;;;;;30.64;42.14;100613.87;1772860;79;20156;-75
2021/06/17 11:53:20;;;;;;;;;;;;;;;30.62;42.14;100619.45;1765430;80;20155;-76
2021/06/17 11:55:51;;;;;;;;;;;;;;;30.63;42.13;100608.65;1765105;79;20148;-77
2021/06/17 11:58:21;;;;;;;;;;;;;;;30.62;41.84;100612.53;1762909;79;20581;-76
2021/06/17 12:00:47;;;;;;;;;;;;;;;30.60;41.39;100612.80;1768178;79;20143;-75
2021/06/17 12:03:24;;;;;;;;;;;;;;;30.60;41.40;100605.89;1758911;80;20146;-76
2021/06/17 12:05:51;;;;;;;;;;;;;;;30.59;41.40;100612.54;1771330;79;20210;-75
2021/06/17 12:08:19;;;;;;;;;;;;;;;30.58;41.77;100600.66;1762761;79;20192;-75
2021/06/17 12:10:47;;;;;;;;;;;;;;;30.56;41.98;100590.42;1765737;80;20189;-76
2021/06/17 12:13:13;;;;;;;;;;;;;;;30.52;41.62;100601.82;1768985;79;20167;-78
2021/06/17 12:15:42;;;;;;;;;;;;;;;30.52;41.67;100617.03;1771788;80;20508;-76
2021/06/17 12:18:10;;;;;;;;;;;;;;;30.58;41.55;100609.52;1768040;79;20175;-77
2021/06/17 12:20:37;;;;;;;;;;;;;;;30.61;41.27;100619.16;1764949;80;20154;-75
2021/06/17 12:23:06;;;;;;;;;;;;;;;30.60;41.66;100619.71;1767989;79;20178;-75
2021/06/17 12:25:35;;;;;;;;;;;;;;;30.59;41.93;100601.48;1766523;80;20142;-75
2021/06/17 12:28:03;;;;;;;;;;;;;;;30.57;41.52;100596.25;1766549;79;20200;-76
2021/06/17 12:30:40;;;;;;;;;;;;;;;30.60;41.60;100612.80;1768210;79;20154;-76
2021/06/17 12:33:10;;;;;;;;;;;;;;;30.61;41.43;100593.70;1767736;79;20182;-76
2021/06/17 12:35:38;;;;;;;;;;;;;;;30.63;41.42;100608.09;1762521;79;20166;-76
2021/06/17 12:38:04;;;;;;;;;;;;;;;30.64;40.83;100602.82;1767078;79;20297;-76
2021/06/17 12:40:41;;;;;;;;;;;;;;;30.65;40.89;100603.08;1763836;79;20160;-77
2021/06/17 12:43:17;;;;;;;;;;;;;;;30.65;40.60;100601.70;1770563;79;20226;-76
2021/06/17 12:45:46;;;;;;;;;;;;;;;30.66;41.18;100605.28;1773542;80;20165;-76
2021/06/17 12:48:31;;;;;;;;;;;;;;;30.67;41.24;100602.25;1771066;79;20198;-76
2021/06/17 12:53:47;;;;;;;;;;;;;;;30.69;41.02;100607.48;1768251;79;20102;-77
2021/06/17 12:56:13;;;;;;;;;;;;;;;30.66;40.78;100607.52;1767766;79;20191;-76
2021/06/17 12:58:46;;;;;;;;;;;;;;;30.65;40.79;100614.70;1769062;79;20150;-76
2021/06/17 13:01:12;;;;;;;;;;;;;;;30.63;40.97;100612.23;1773841;79;20428;-76
2021/06/17 13:03:39;;;;;;;;;;;;;;;30.63;40.97;100621.91;1779606;79;20168;-76